Terminal Aerodrome Forecast
Issued by NWS Albany, NY

Home | Current Version | Previous Version | Text Only | Print | Product List | Glossary On
Versions: 1 2 3 4 5 6 7 8 9 10 11 12 13 14 15 16 17 18 19 20 21 22 23 24
000
FTUS41 KALY 191700
TAFPOU
TAF
KPOU 191720Z 1918/2018 32008KT P6SM OVC040
     FM192000 32007KT P6SM BKN040
     FM200000 36003KT P6SM BKN040
     FM201200 VRB03KT P6SM BKN050=

USA.gov is the U.S. government's official web portal to all federal, state and local government web resources and services.